sensor_id;sensor_type;location;lat;lon;timestamp;P1;durP1;ratioP1;P2;durP2;ratioP2
39400;SDS011;54391;50.000;7.360;2022-12-26T00:00:52;1.85;;;1.20;;
39400;SDS011;54391;50.000;7.360;2022-12-26T00:03:24;2.28;;;0.95;;
39400;SDS011;54391;50.000;7.360;2022-12-26T00:05:53;3.78;;;1.42;;
39400;SDS011;54391;50.000;7.360;2022-12-26T00:08:23;2.80;;;0.85;;
39400;SDS011;54391;50.000;7.360;2022-12-26T00:10:51;4.53;;;1.45;;
39400;SDS011;54391;50.000;7.360;2022-12-26T00:13:27;8.00;;;1.30;;
39400;SDS011;54391;50.000;7.360;2022-12-26T00:15:54;1.77;;;0.98;;
39400;SDS011;54391;50.000;7.360;2022-12-26T00:18:22;1.52;;;1.15;;
39400;SDS011;54391;50.000;7.360;2022-12-26T00:20:49;3.70;;;1.10;;
39400;SDS011;54391;50.000;7.360;2022-12-26T00:23:17;2.33;;;1.27;;
39400;SDS011;54391;50.000;7.360;2022-12-26T00:25:44;2.58;;;1.50;;
39400;SDS011;54391;50.000;7.360;2022-12-26T00:28:12;3.10;;;1.27;;
39400;SDS011;54391;50.000;7.360;2022-12-26T00:30:39;1.95;;;1.20;;
39400;SDS011;54391;50.000;7.360;2022-12-26T00:33:06;2.17;;;1.00;;
39400;SDS011;54391;50.000;7.360;2022-12-26T00:35:33;2.00;;;0.85;;
39400;SDS011;54391;50.000;7.360;2022-12-26T00:38:00;1.52;;;1.20;;
39400;SDS011;54391;50.000;7.360;2022-12-26T00:40:29;2.10;;;1.10;;
39400;SDS011;54391;50.000;7.360;2022-12-26T00:42:56;1.50;;;0.80;;
39400;SDS011;54391;50.000;7.360;2022-12-26T00:45:23;2.70;;;1.02;;
39400;SDS011;54391;50.000;7.360;2022-12-26T00:47:51;2.45;;;0.90;;
39400;SDS011;54391;50.000;7.360;2022-12-26T00:50:18;1.92;;;1.05;;
39400;SDS011;54391;50.000;7.360;2022-12-26T00:52:45;3.03;;;1.08;;
39400;SDS011;54391;50.000;7.360;2022-12-26T00:55:12;4.38;;;1.17;;
39400;SDS011;54391;50.000;7.360;2022-12-26T00:57:41;1.10;;;0.75;;
39400;SDS011;54391;50.000;7.360;2022-12-26T01:00:09;3.20;;;0.90;;
39400;SDS011;54391;50.000;7.360;2022-12-26T01:02:37;1.92;;;0.70;;
39400;SDS011;54391;50.000;7.360;2022-12-26T01:05:06;1.83;;;1.00;;
39400;SDS011;54391;50.000;7.360;2022-12-26T01:07:35;1.92;;;0.93;;
39400;SDS011;54391;50.000;7.360;2022-12-26T01:10:04;3.15;;;1.20;;
39400;SDS011;54391;50.000;7.360;2022-12-26T01:12:32;2.35;;;1.05;;
39400;SDS011;54391;50.000;7.360;2022-12-26T01:15:00;2.72;;;1.10;;
39400;SDS011;54391;50.000;7.360;2022-12-26T01:17:28;3.58;;;0.95;;
39400;SDS011;54391;50.000;7.360;2022-12-26T01:19:55;2.55;;;1.25;;
39400;SDS011;54391;50.000;7.360;2022-12-26T01:22:23;2.40;;;1.10;;
39400;SDS011;54391;50.000;7.360;2022-12-26T01:24:52;3.63;;;1.27;;
39400;SDS011;54391;50.000;7.360;2022-12-26T01:27:19;3.60;;;1.15;;
39400;SDS011;54391;50.000;7.360;2022-12-26T01:29:47;1.85;;;0.82;;
39400;SDS011;54391;50.000;7.360;2022-12-26T01:32:15;3.13;;;1.27;;
39400;SDS011;54391;50.000;7.360;2022-12-26T01:34:43;2.00;;;1.00;;
39400;SDS011;54391;50.000;7.360;2022-12-26T01:37:11;2.13;;;0.95;;
39400;SDS011;54391;50.000;7.360;2022-12-26T01:39:39;3.35;;;1.42;;
39400;SDS011;54391;50.000;7.360;2022-12-26T01:42:08;7.20;;;1.30;;
39400;SDS011;54391;50.000;7.360;2022-12-26T01:44:55;2.40;;;1.25;;
39400;SDS011;54391;50.000;7.360;2022-12-26T01:47:40;1.77;;;0.80;;
39400;SDS011;54391;50.000;7.360;2022-12-26T01:53:04;2.35;;;0.73;;
39400;SDS011;54391;50.000;7.360;2022-12-26T01:55:35;3.70;;;1.70;;
39400;SDS011;54391;50.000;7.360;2022-12-26T01:58:05;2.58;;;1.13;;
39400;SDS011;54391;50.000;7.360;2022-12-26T02:00:35;2.47;;;1.55;;
39400;SDS011;54391;50.000;7.360;2022-12-26T02:03:06;2.72;;;1.35;;
39400;SDS011;54391;50.000;7.360;2022-12-26T02:05:53;1.52;;;1.00;;
39400;SDS011;54391;50.000;7.360;2022-12-26T02:08:23;1.80;;;0.88;;
39400;SDS011;54391;50.000;7.360;2022-12-26T02:10:55;2.05;;;0.73;;
39400;SDS011;54391;50.000;7.360;2022-12-26T02:13:28;2.55;;;1.42;;
39400;SDS011;54391;50.000;7.360;2022-12-26T02:15:56;2.72;;;1.13;;
39400;SDS011;54391;50.000;7.360;2022-12-26T02:18:25;3.92;;;1.42;;
39400;SDS011;54391;50.000;7.360;2022-12-26T02:20:55;3.80;;;0.98;;
39400;SDS011;54391;50.000;7.360;2022-12-26T02:30:00;2.47;;;1.25;;
39400;SDS011;54391;50.000;7.360;2022-12-26T02:32:38;3.70;;;1.70;;
39400;SDS011;54391;50.000;7.360;2022-12-26T02:35:21;2.40;;;1.00;;
39400;SDS011;54391;50.000;7.360;2022-12-26T02:37:59;3.70;;;1.27;;
39400;SDS011;54391;50.000;7.360;2022-12-26T02:40:39;5.68;;;1.40;;
39400;SDS011;54391;50.000;7.360;2022-12-26T02:43:16;2.53;;;0.98;;
39400;SDS011;54391;50.000;7.360;2022-12-26T02:45:49;3.13;;;1.27;;
39400;SDS011;54391;50.000;7.360;2022-12-26T02:48:44;3.08;;;1.48;;
39400;SDS011;54391;50.000;7.360;2022-12-26T02:51:21;2.65;;;0.90;;
39400;SDS011;54391;50.000;7.360;2022-12-26T02:54:19;4.60;;;1.27;;
39400;SDS011;54391;50.000;7.360;2022-12-26T02:57:15;3.20;;;1.38;;
39400;SDS011;54391;50.000;7.360;2022-12-26T03:00:04;4.00;;;1.40;;
39400;SDS011;54391;50.000;7.360;2022-12-26T03:02:55;4.32;;;1.52;;
39400;SDS011;54391;50.000;7.360;2022-12-26T03:05:46;1.70;;;1.10;;
39400;SDS011;54391;50.000;7.360;2022-12-26T03:08:36;2.95;;;1.40;;
39400;SDS011;54391;50.000;7.360;2022-12-26T03:11:28;2.40;;;1.30;;
39400;SDS011;54391;50.000;7.360;2022-12-26T03:14:18;3.22;;;1.23;;
39400;SDS011;54391;50.000;7.360;2022-12-26T03:16:50;3.25;;;1.60;;
39400;SDS011;54391;50.000;7.360;2022-12-26T03:19:39;7.90;;;1.42;;
39400;SDS011;54391;50.000;7.360;2022-12-26T03:22:24;6.03;;;1.50;;
39400;SDS011;54391;50.000;7.360;2022-12-26T03:24:56;3.08;;;1.40;;
39400;SDS011;54391;50.000;7.360;2022-12-26T03:27:42;4.47;;;1.20;;
39400;SDS011;54391;50.000;7.360;2022-12-26T03:30:10;4.13;;;1.63;;
39400;SDS011;54391;50.000;7.360;2022-12-26T03:32:56;3.35;;;1.20;;
39400;SDS011;54391;50.000;7.360;2022-12-26T03:35:24;2.78;;;1.27;;
39400;SDS011;54391;50.000;7.360;2022-12-26T03:37:56;2.92;;;1.40;;
39400;SDS011;54391;50.000;7.360;2022-12-26T03:40:37;4.15;;;1.20;;
39400;SDS011;54391;50.000;7.360;2022-12-26T03:43:34;1.92;;;0.95;;
39400;SDS011;54391;50.000;7.360;2022-12-26T03:46:32;3.70;;;1.30;;
39400;SDS011;54391;50.000;7.360;2022-12-26T03:49:29;4.68;;;2.00;;
39400;SDS011;54391;50.000;7.360;2022-12-26T03:52:19;3.63;;;1.30;;
39400;SDS011;54391;50.000;7.360;2022-12-26T03:55:11;1.58;;;0.93;;
39400;SDS011;54391;50.000;7.360;2022-12-26T03:58:04;1.05;;;0.88;;
39400;SDS011;54391;50.000;7.360;2022-12-26T04:00:56;1.15;;;0.90;;
39400;SDS011;54391;50.000;7.360;2022-12-26T04:03:46;8.30;;;3.10;;
39400;SDS011;54391;50.000;7.360;2022-12-26T04:06:33;1.65;;;0.90;;
39400;SDS011;54391;50.000;7.360;2022-12-26T04:09:25;1.90;;;1.00;;
39400;SDS011;54391;50.000;7.360;2022-12-26T04:12:18;1.88;;;0.90;;
39400;SDS011;54391;50.000;7.360;2022-12-26T04:15:06;2.05;;;0.80;;
39400;SDS011;54391;50.000;7.360;2022-12-26T04:18:03;2.45;;;0.95;;
39400;SDS011;54391;50.000;7.360;2022-12-26T04:20:53;1.65;;;0.90;;
39400;SDS011;54391;50.000;7.360;2022-12-26T04:23:33;1.48;;;0.90;;
39400;SDS011;54391;50.000;7.360;2022-12-26T04:26:26;2.92;;;1.20;;
39400;SDS011;54391;50.000;7.360;2022-12-26T04:29:19;2.50;;;1.10;;
39400;SDS011;54391;50.000;7.360;2022-12-26T04:32:06;3.13;;;1.33;;
39400;SDS011;54391;50.000;7.360;2022-12-26T04:34:56;2.80;;;1.13;;
39400;SDS011;54391;50.000;7.360;2022-12-26T04:37:48;2.30;;;0.90;;
39400;SDS011;54391;50.000;7.360;2022-12-26T04:40:35;2.40;;;0.88;;
39400;SDS011;54391;50.000;7.360;2022-12-26T04:43:25;2.42;;;1.08;;
39400;SDS011;54391;50.000;7.360;2022-12-26T04:46:13;2.47;;;1.00;;
39400;SDS011;54391;50.000;7.360;2022-12-26T04:48:41;3.60;;;1.17;;
39400;SDS011;54391;50.000;7.360;2022-12-26T04:53:54;5.80;;;1.27;;
39400;SDS011;54391;50.000;7.360;2022-12-26T04:56:22;2.92;;;1.00;;
39400;SDS011;54391;50.000;7.360;2022-12-26T04:58:49;2.20;;;0.95;;
39400;SDS011;54391;50.000;7.360;2022-12-26T05:01:18;2.88;;;0.90;;
39400;SDS011;54391;50.000;7.360;2022-12-26T05:04:04;1.65;;;0.82;;
39400;SDS011;54391;50.000;7.360;2022-12-26T05:06:48;2.30;;;0.93;;
39400;SDS011;54391;50.000;7.360;2022-12-26T05:09:33;2.33;;;0.90;;
39400;SDS011;54391;50.000;7.360;2022-12-26T05:12:01;2.03;;;0.90;;
39400;SDS011;54391;50.000;7.360;2022-12-26T05:14:29;3.97;;;1.10;;
39400;SDS011;54391;50.000;7.360;2022-12-26T05:17:01;3.00;;;0.90;;
39400;SDS011;54391;50.000;7.360;2022-12-26T05:19:46;2.30;;;0.90;;
39400;SDS011;54391;50.000;7.360;2022-12-26T05:22:31;1.75;;;1.30;;
39400;SDS011;54391;50.000;7.360;2022-12-26T05:25:18;5.70;;;1.92;;
39400;SDS011;54391;50.000;7.360;2022-12-26T05:28:07;2.22;;;0.90;;
39400;SDS011;54391;50.000;7.360;2022-12-26T05:30:53;4.18;;;1.20;;
39400;SDS011;54391;50.000;7.360;2022-12-26T05:33:21;2.75;;;1.13;;
39400;SDS011;54391;50.000;7.360;2022-12-26T05:36:06;2.53;;;0.93;;
39400;SDS011;54391;50.000;7.360;2022-12-26T05:38:34;2.63;;;0.80;;
39400;SDS011;54391;50.000;7.360;2022-12-26T05:41:02;1.88;;;0.90;;
39400;SDS011;54391;50.000;7.360;2022-12-26T05:43:30;3.00;;;0.82;;
39400;SDS011;54391;50.000;7.360;2022-12-26T05:45:57;1.08;;;0.70;;
39400;SDS011;54391;50.000;7.360;2022-12-26T05:48:26;1.85;;;0.88;;
39400;SDS011;54391;50.000;7.360;2022-12-26T05:50:56;1.17;;;0.68;;
39400;SDS011;54391;50.000;7.360;2022-12-26T05:53:25;2.78;;;1.15;;
39400;SDS011;54391;50.000;7.360;2022-12-26T05:55:52;2.20;;;0.63;;
39400;SDS011;54391;50.000;7.360;2022-12-26T05:58:19;2.22;;;0.90;;
39400;SDS011;54391;50.000;7.360;2022-12-26T06:00:47;1.23;;;0.77;;
39400;SDS011;54391;50.000;7.360;2022-12-26T06:03:14;1.27;;;1.00;;
39400;SDS011;54391;50.000;7.360;2022-12-26T06:05:43;2.22;;;1.00;;
39400;SDS011;54391;50.000;7.360;2022-12-26T06:08:11;2.65;;;1.10;;
39400;SDS011;54391;50.000;7.360;2022-12-26T06:10:38;4.70;;;1.02;;
39400;SDS011;54391;50.000;7.360;2022-12-26T06:13:05;2.20;;;1.00;;
39400;SDS011;54391;50.000;7.360;2022-12-26T06:15:32;2.97;;;0.80;;
39400;SDS011;54391;50.000;7.360;2022-12-26T06:17:59;3.42;;;1.10;;
39400;SDS011;54391;50.000;7.360;2022-12-26T06:20:29;0.50;;;0.40;;
39400;SDS011;54391;50.000;7.360;2022-12-26T06:22:58;2.67;;;1.10;;
39400;SDS011;54391;50.000;7.360;2022-12-26T06:25:27;3.45;;;0.82;;
39400;SDS011;54391;50.000;7.360;2022-12-26T06:27:54;2.60;;;1.00;;
39400;SDS011;54391;50.000;7.360;2022-12-26T06:30:21;1.15;;;0.55;;
39400;SDS011;54391;50.000;7.360;2022-12-26T06:32:48;3.85;;;1.02;;
39400;SDS011;54391;50.000;7.360;2022-12-26T06:35:18;1.45;;;0.70;;
39400;SDS011;54391;50.000;7.360;2022-12-26T06:37:45;2.13;;;0.77;;
39400;SDS011;54391;50.000;7.360;2022-12-26T06:40:13;1.25;;;0.70;;
39400;SDS011;54391;50.000;7.360;2022-12-26T06:42:41;1.88;;;0.73;;
39400;SDS011;54391;50.000;7.360;2022-12-26T06:45:08;1.73;;;0.80;;
39400;SDS011;54391;50.000;7.360;2022-12-26T06:47:36;1.15;;;0.63;;
39400;SDS011;54391;50.000;7.360;2022-12-26T06:50:04;1.13;;;0.63;;
39400;SDS011;54391;50.000;7.360;2022-12-26T06:52:31;2.60;;;0.70;;
39400;SDS011;54391;50.000;7.360;2022-12-26T06:54:59;1.95;;;0.52;;
39400;SDS011;54391;50.000;7.360;2022-12-26T06:57:27;2.45;;;0.50;;
39400;SDS011;54391;50.000;7.360;2022-12-26T06:59:54;0.98;;;0.45;;
39400;SDS011;54391;50.000;7.360;2022-12-26T07:02:22;1.30;;;0.50;;
39400;SDS011;54391;50.000;7.360;2022-12-26T07:04:49;0.95;;;0.65;;
39400;SDS011;54391;50.000;7.360;2022-12-26T07:07:16;1.63;;;0.43;;
39400;SDS011;54391;50.000;7.360;2022-12-26T07:09:43;0.82;;;0.40;;
39400;SDS011;54391;50.000;7.360;2022-12-26T07:12:10;2.25;;;0.30;;
39400;SDS011;54391;50.000;7.360;2022-12-26T07:14:39;1.17;;;0.30;;
39400;SDS011;54391;50.000;7.360;2022-12-26T07:17:07;2.13;;;0.40;;
39400;SDS011;54391;50.000;7.360;2022-12-26T07:19:35;1.05;;;0.40;;
39400;SDS011;54391;50.000;7.360;2022-12-26T07:22:02;0.82;;;0.40;;
39400;SDS011;54391;50.000;7.360;2022-12-26T07:24:30;1.23;;;0.50;;
39400;SDS011;54391;50.000;7.360;2022-12-26T07:26:57;1.05;;;0.55;;
39400;SDS011;54391;50.000;7.360;2022-12-26T07:29:25;3.45;;;0.65;;
39400;SDS011;54391;50.000;7.360;2022-12-26T07:31:53;0.75;;;0.50;;
39400;SDS011;54391;50.000;7.360;2022-12-26T07:34:22;0.80;;;0.55;;
39400;SDS011;54391;50.000;7.360;2022-12-26T07:36:51;0.38;;;0.22;;
39400;SDS011;54391;50.000;7.360;2022-12-26T07:39:18;2.33;;;0.98;;
39400;SDS011;54391;50.000;7.360;2022-12-26T07:41:46;1.33;;;0.50;;
39400;SDS011;54391;50.000;7.360;2022-12-26T07:44:22;1.10;;;0.40;;
39400;SDS011;54391;50.000;7.360;2022-12-26T07:46:50;1.02;;;0.40;;
39400;SDS011;54391;50.000;7.360;2022-12-26T07:49:19;0.70;;;0.40;;
39400;SDS011;54391;50.000;7.360;2022-12-26T07:51:47;0.77;;;0.50;;
39400;SDS011;54391;50.000;7.360;2022-12-26T07:54:14;0.55;;;0.30;;
39400;SDS011;54391;50.000;7.360;2022-12-26T07:56:43;0.28;;;0.20;;
39400;SDS011;54391;50.000;7.360;2022-12-26T07:59:11;1.45;;;0.60;;
39400;SDS011;54391;50.000;7.360;2022-12-26T08:01:39;0.82;;;0.60;;
39400;SDS011;54391;50.000;7.360;2022-12-26T08:04:07;1.23;;;0.60;;
39400;SDS011;54391;50.000;7.360;2022-12-26T08:06:36;1.73;;;0.50;;
39400;SDS011;54391;50.000;7.360;2022-12-26T08:09:03;0.70;;;0.40;;
39400;SDS011;54391;50.000;7.360;2022-12-26T08:11:31;0.75;;;0.50;;
39400;SDS011;54391;50.000;7.360;2022-12-26T08:13:59;0.38;;;0.28;;
39400;SDS011;54391;50.000;7.360;2022-12-26T08:16:30;1.83;;;0.40;;
39400;SDS011;54391;50.000;7.360;2022-12-26T08:18:57;0.77;;;0.38;;
39400;SDS011;54391;50.000;7.360;2022-12-26T08:21:29;0.60;;;0.40;;
39400;SDS011;54391;50.000;7.360;2022-12-26T08:23:57;1.75;;;0.30;;
39400;SDS011;54391;50.000;7.360;2022-12-26T08:26:25;0.50;;;0.32;;
39400;SDS011;54391;50.000;7.360;2022-12-26T08:28:53;0.70;;;0.50;;
39400;SDS011;54391;50.000;7.360;2022-12-26T08:31:21;0.63;;;0.45;;
39400;SDS011;54391;50.000;7.360;2022-12-26T08:33:49;0.43;;;0.43;;
39400;SDS011;54391;50.000;7.360;2022-12-26T08:36:19;0.90;;;0.50;;
39400;SDS011;54391;50.000;7.360;2022-12-26T08:38:47;0.70;;;0.50;;
39400;SDS011;54391;50.000;7.360;2022-12-26T08:41:15;0.68;;;0.40;;
39400;SDS011;54391;50.000;7.360;2022-12-26T08:43:43;1.58;;;0.63;;
39400;SDS011;54391;50.000;7.360;2022-12-26T08:46:13;0.80;;;0.38;;
39400;SDS011;54391;50.000;7.360;2022-12-26T08:48:40;1.50;;;0.47;;
39400;SDS011;54391;50.000;7.360;2022-12-26T08:51:10;1.50;;;0.45;;
39400;SDS011;54391;50.000;7.360;2022-12-26T08:53:39;0.68;;;0.47;;
39400;SDS011;54391;50.000;7.360;2022-12-26T08:56:09;0.93;;;0.30;;
39400;SDS011;54391;50.000;7.360;2022-12-26T08:58:41;0.57;;;0.30;;
39400;SDS011;54391;50.000;7.360;2022-12-26T09:01:09;1.08;;;0.63;;
39400;SDS011;54391;50.000;7.360;2022-12-26T09:03:38;0.60;;;0.40;;
39400;SDS011;54391;50.000;7.360;2022-12-26T09:06:06;0.70;;;0.40;;
39400;SDS011;54391;50.000;7.360;2022-12-26T09:08:35;1.58;;;0.90;;
39400;SDS011;54391;50.000;7.360;2022-12-26T09:11:03;0.75;;;0.20;;
39400;SDS011;54391;50.000;7.360;2022-12-26T09:13:31;0.30;;;0.30;;
39400;SDS011;54391;50.000;7.360;2022-12-26T09:16:05;1.30;;;0.50;;
39400;SDS011;54391;50.000;7.360;2022-12-26T09:18:34;0.93;;;0.30;;
39400;SDS011;54391;50.000;7.360;2022-12-26T09:21:04;0.40;;;0.30;;
39400;SDS011;54391;50.000;7.360;2022-12-26T09:23:32;0.60;;;0.30;;
39400;SDS011;54391;50.000;7.360;2022-12-26T09:26:04;0.30;;;0.20;;
39400;SDS011;54391;50.000;7.360;2022-12-26T09:28:32;0.52;;;0.35;;
39400;SDS011;54391;50.000;7.360;2022-12-26T09:31:00;0.47;;;0.40;;
39400;SDS011;54391;50.000;7.360;2022-12-26T09:33:31;0.13;;;0.13;;
39400;SDS011;54391;50.000;7.360;2022-12-26T09:36:03;1.17;;;0.32;;
39400;SDS011;54391;50.000;7.360;2022-12-26T09:38:31;0.20;;;0.20;;
39400;SDS011;54391;50.000;7.360;2022-12-26T09:41:01;0.55;;;0.17;;
39400;SDS011;54391;50.000;7.360;2022-12-26T09:43:44;0.70;;;0.30;;
39400;SDS011;54391;50.000;7.360;2022-12-26T09:46:23;0.30;;;0.30;;
39400;SDS011;54391;50.000;7.360;2022-12-26T09:49:02;0.98;;;0.55;;
39400;SDS011;54391;50.000;7.360;2022-12-26T09:51:34;0.22;;;0.15;;
39400;SDS011;54391;50.000;7.360;2022-12-26T09:54:03;1.30;;;0.20;;
39400;SDS011;54391;50.000;7.360;2022-12-26T09:56:32;0.30;;;0.20;;
39400;SDS011;54391;50.000;7.360;2022-12-26T09:59:04;0.90;;;0.30;;
39400;SDS011;54391;50.000;7.360;2022-12-26T10:01:37;0.20;;;0.20;;
39400;SDS011;54391;50.000;7.360;2022-12-26T10:04:08;0.38;;;0.20;;
39400;SDS011;54391;50.000;7.360;2022-12-26T10:06:44;0.50;;;0.30;;
39400;SDS011;54391;50.000;7.360;2022-12-26T10:09:21;1.27;;;0.32;;
39400;SDS011;54391;50.000;7.360;2022-12-26T10:12:10;0.68;;;0.50;;
39400;SDS011;54391;50.000;7.360;2022-12-26T10:14:48;0.35;;;0.32;;
39400;SDS011;54391;50.000;7.360;2022-12-26T10:17:23;0.47;;;0.35;;
39400;SDS011;54391;50.000;7.360;2022-12-26T10:23:05;0.60;;;0.30;;
39400;SDS011;54391;50.000;7.360;2022-12-26T10:25:54;0.52;;;0.20;;
39400;SDS011;54391;50.000;7.360;2022-12-26T10:28:27;0.40;;;0.40;;
39400;SDS011;54391;50.000;7.360;2022-12-26T10:31:01;1.58;;;0.80;;
39400;SDS011;54391;50.000;7.360;2022-12-26T10:33:35;1.15;;;0.50;;
39400;SDS011;54391;50.000;7.360;2022-12-26T10:36:14;1.88;;;0.55;;
39400;SDS011;54391;50.000;7.360;2022-12-26T10:38:53;0.43;;;0.35;;
39400;SDS011;54391;50.000;7.360;2022-12-26T10:41:25;0.47;;;0.32;;
39400;SDS011;54391;50.000;7.360;2022-12-26T10:43:55;0.47;;;0.30;;
39400;SDS011;54391;50.000;7.360;2022-12-26T10:46:29;0.73;;;0.43;;
39400;SDS011;54391;50.000;7.360;2022-12-26T10:49:08;0.50;;;0.30;;
39400;SDS011;54391;50.000;7.360;2022-12-26T10:51:39;0.40;;;0.30;;
39400;SDS011;54391;50.000;7.360;2022-12-26T10:54:10;0.20;;;0.20;;
39400;SDS011;54391;50.000;7.360;2022-12-26T10:56:42;0.63;;;0.45;;
39400;SDS011;54391;50.000;7.360;2022-12-26T10:59:12;2.28;;;1.05;;
39400;SDS011;54391;50.000;7.360;2022-12-26T11:01:42;0.63;;;0.40;;
39400;SDS011;54391;50.000;7.360;2022-12-26T11:04:17;1.33;;;0.50;;
39400;SDS011;54391;50.000;7.360;2022-12-26T11:06:49;0.68;;;0.30;;
39400;SDS011;54391;50.000;7.360;2022-12-26T11:09:22;0.60;;;0.55;;
39400;SDS011;54391;50.000;7.360;2022-12-26T11:11:59;1.02;;;0.68;;
39400;SDS011;54391;50.000;7.360;2022-12-26T11:14:32;1.45;;;0.60;;
39400;SDS011;54391;50.000;7.360;2022-12-26T11:17:04;1.27;;;0.68;;
39400;SDS011;54391;50.000;7.360;2022-12-26T11:19:33;0.50;;;0.35;;
39400;SDS011;54391;50.000;7.360;2022-12-26T11:25:05;1.27;;;0.30;;
39400;SDS011;54391;50.000;7.360;2022-12-26T11:27:47;0.68;;;0.50;;
39400;SDS011;54391;50.000;7.360;2022-12-26T11:30:18;1.63;;;0.50;;
39400;SDS011;54391;50.000;7.360;2022-12-26T11:32:50;0.65;;;0.40;;
39400;SDS011;54391;50.000;7.360;2022-12-26T11:35:44;0.55;;;0.40;;
39400;SDS011;54391;50.000;7.360;2022-12-26T11:38:16;3.05;;;0.80;;
39400;SDS011;54391;50.000;7.360;2022-12-26T11:41:12;2.25;;;0.60;;
39400;SDS011;54391;50.000;7.360;2022-12-26T11:43:58;3.20;;;0.60;;
39400;SDS011;54391;50.000;7.360;2022-12-26T11:46:37;2.17;;;0.47;;
39400;SDS011;54391;50.000;7.360;2022-12-26T11:49:09;2.10;;;0.57;;
39400;SDS011;54391;50.000;7.360;2022-12-26T11:51:44;2.65;;;0.60;;
39400;SDS011;54391;50.000;7.360;2022-12-26T11:54:20;2.97;;;1.02;;
39400;SDS011;54391;50.000;7.360;2022-12-26T11:57:01;1.23;;;0.70;;
39400;SDS011;54391;50.000;7.360;2022-12-26T11:59:42;0.90;;;0.40;;
39400;SDS011;54391;50.000;7.360;2022-12-26T12:04:58;1.38;;;0.20;;
39400;SDS011;54391;50.000;7.360;2022-12-26T12:10:22;0.85;;;0.28;;
39400;SDS011;54391;50.000;7.360;2022-12-26T12:13:10;1.25;;;0.60;;
39400;SDS011;54391;50.000;7.360;2022-12-26T12:15:49;0.60;;;0.40;;
39400;SDS011;54391;50.000;7.360;2022-12-26T12:18:21;0.47;;;0.30;;
39400;SDS011;54391;50.000;7.360;2022-12-26T12:21:01;0.98;;;0.45;;
39400;SDS011;54391;50.000;7.360;2022-12-26T12:23:41;0.73;;;0.45;;
39400;SDS011;54391;50.000;7.360;2022-12-26T12:26:20;1.08;;;0.70;;
39400;SDS011;54391;50.000;7.360;2022-12-26T12:32:02;1.83;;;0.40;;
39400;SDS011;54391;50.000;7.360;2022-12-26T12:34:43;0.50;;;0.45;;
39400;SDS011;54391;50.000;7.360;2022-12-26T12:37:23;1.02;;;0.43;;
39400;SDS011;54391;50.000;7.360;2022-12-26T12:40:01;0.45;;;0.20;;
39400;SDS011;54391;50.000;7.360;2022-12-26T12:42:42;0.38;;;0.30;;
39400;SDS011;54391;50.000;7.360;2022-12-26T12:45:25;1.33;;;0.32;;
39400;SDS011;54391;50.000;7.360;2022-12-26T12:53:28;0.32;;;0.20;;
39400;SDS011;54391;50.000;7.360;2022-12-26T12:56:11;0.15;;;0.13;;
39400;SDS011;54391;50.000;7.360;2022-12-26T12:58:47;0.52;;;0.30;;
39400;SDS011;54391;50.000;7.360;2022-12-26T13:01:32;0.55;;;0.10;;
39400;SDS011;54391;50.000;7.360;2022-12-26T13:04:03;0.65;;;0.17;;
39400;SDS011;54391;50.000;7.360;2022-12-26T13:06:36;0.38;;;0.20;;
39400;SDS011;54391;50.000;7.360;2022-12-26T13:09:10;0.17;;;0.10;;
39400;SDS011;54391;50.000;7.360;2022-12-26T13:11:42;0.40;;;0.30;;
39400;SDS011;54391;50.000;7.360;2022-12-26T13:14:13;0.60;;;0.15;;
39400;SDS011;54391;50.000;7.360;2022-12-26T13:16:47;0.13;;;0.13;;
39400;SDS011;54391;50.000;7.360;2022-12-26T13:19:21;1.58;;;0.60;;
39400;SDS011;54391;50.000;7.360;2022-12-26T13:21:53;2.05;;;0.93;;
39400;SDS011;54391;50.000;7.360;2022-12-26T13:24:25;0.55;;;0.10;;
39400;SDS011;54391;50.000;7.360;2022-12-26T13:27:00;0.10;;;0.10;;
39400;SDS011;54391;50.000;7.360;2022-12-26T13:29:33;0.10;;;0.10;;
39400;SDS011;54391;50.000;7.360;2022-12-26T13:32:14;0.05;;;0.00;;
39400;SDS011;54391;50.000;7.360;2022-12-26T13:34:45;1.83;;;0.30;;
39400;SDS011;54391;50.000;7.360;2022-12-26T13:40:24;0.57;;;0.50;;
39400;SDS011;54391;50.000;7.360;2022-12-26T13:42:56;0.65;;;0.20;;
39400;SDS011;54391;50.000;7.360;2022-12-26T13:45:50;0.30;;;0.20;;
39400;SDS011;54391;50.000;7.360;2022-12-26T13:51:47;1.30;;;0.28;;
39400;SDS011;54391;50.000;7.360;2022-12-26T13:54:19;1.10;;;0.20;;
39400;SDS011;54391;50.000;7.360;2022-12-26T14:00:03;1.48;;;0.20;;
39400;SDS011;54391;50.000;7.360;2022-12-26T14:12:07;0.80;;;0.30;;
39400;SDS011;54391;50.000;7.360;2022-12-26T14:14:53;0.75;;;0.30;;
39400;SDS011;54391;50.000;7.360;2022-12-26T14:17:33;1.67;;;0.30;;
39400;SDS011;54391;50.000;7.360;2022-12-26T14:20:13;0.40;;;0.20;;
39400;SDS011;54391;50.000;7.360;2022-12-26T14:22:54;0.32;;;0.13;;
39400;SDS011;54391;50.000;7.360;2022-12-26T14:25:32;0.30;;;0.17;;
39400;SDS011;54391;50.000;7.360;2022-12-26T14:28:16;0.75;;;0.20;;
39400;SDS011;54391;50.000;7.360;2022-12-26T14:30:52;0.65;;;0.30;;
39400;SDS011;54391;50.000;7.360;2022-12-26T14:33:28;0.93;;;0.20;;
39400;SDS011;54391;50.000;7.360;2022-12-26T14:36:15;0.85;;;0.10;;
39400;SDS011;54391;50.000;7.360;2022-12-26T14:38:50;0.50;;;0.15;;
39400;SDS011;54391;50.000;7.360;2022-12-26T14:41:25;0.17;;;0.17;;
39400;SDS011;54391;50.000;7.360;2022-12-26T14:46:55;1.15;;;0.10;;
39400;SDS011;54391;50.000;7.360;2022-12-26T14:49:37;0.65;;;0.20;;
39400;SDS011;54391;50.000;7.360;2022-12-26T15:04:14;0.13;;;0.13;;
39400;SDS011;54391;50.000;7.360;2022-12-26T15:07:14;0.20;;;0.20;;
39400;SDS011;54391;50.000;7.360;2022-12-26T15:16:42;0.55;;;0.20;;
39400;SDS011;54391;50.000;7.360;2022-12-26T15:19:25;0.20;;;0.10;;
39400;SDS011;54391;50.000;7.360;2022-12-26T15:22:20;0.77;;;0.47;;
39400;SDS011;54391;50.000;7.360;2022-12-26T15:25:24;3.03;;;1.55;;
39400;SDS011;54391;50.000;7.360;2022-12-26T15:31:23;0.52;;;0.30;;
39400;SDS011;54391;50.000;7.360;2022-12-26T15:33:58;1.27;;;0.25;;
39400;SDS011;54391;50.000;7.360;2022-12-26T15:36:30;1.15;;;0.40;;
39400;SDS011;54391;50.000;7.360;2022-12-26T15:39:11;1.00;;;0.30;;
39400;SDS011;54391;50.000;7.360;2022-12-26T15:41:47;0.40;;;0.20;;
39400;SDS011;54391;50.000;7.360;2022-12-26T15:44:23;1.00;;;0.25;;
39400;SDS011;54391;50.000;7.360;2022-12-26T15:47:01;0.88;;;0.20;;
39400;SDS011;54391;50.000;7.360;2022-12-26T15:49:42;1.00;;;0.38;;
39400;SDS011;54391;50.000;7.360;2022-12-26T15:52:20;1.17;;;0.30;;
39400;SDS011;54391;50.000;7.360;2022-12-26T15:55:04;0.60;;;0.20;;
39400;SDS011;54391;50.000;7.360;2022-12-26T15:57:45;0.95;;;0.30;;
39400;SDS011;54391;50.000;7.360;2022-12-26T16:00:19;0.25;;;0.10;;
39400;SDS011;54391;50.000;7.360;2022-12-26T16:02:56;0.43;;;0.20;;
39400;SDS011;54391;50.000;7.360;2022-12-26T16:05:46;0.10;;;0.10;;
39400;SDS011;54391;50.000;7.360;2022-12-26T16:13:49;0.32;;;0.10;;
39400;SDS011;54391;50.000;7.360;2022-12-26T16:16:27;0.20;;;0.20;;
39400;SDS011;54391;50.000;7.360;2022-12-26T16:19:00;0.10;;;0.10;;
39400;SDS011;54391;50.000;7.360;2022-12-26T16:21:40;1.08;;;0.68;;
39400;SDS011;54391;50.000;7.360;2022-12-26T16:24:28;0.75;;;0.20;;
39400;SDS011;54391;50.000;7.360;2022-12-26T16:26:58;0.20;;;0.20;;
39400;SDS011;54391;50.000;7.360;2022-12-26T16:29:28;3.13;;;0.20;;
39400;SDS011;54391;50.000;7.360;2022-12-26T16:32:00;0.20;;;0.10;;
39400;SDS011;54391;50.000;7.360;2022-12-26T16:34:32;0.13;;;0.10;;
39400;SDS011;54391;50.000;7.360;2022-12-26T16:37:01;0.47;;;0.13;;
39400;SDS011;54391;50.000;7.360;2022-12-26T16:39:29;0.60;;;0.20;;
39400;SDS011;54391;50.000;7.360;2022-12-26T16:41:59;0.47;;;0.10;;
39400;SDS011;54391;50.000;7.360;2022-12-26T16:44:30;2.20;;;0.52;;
39400;SDS011;54391;50.000;7.360;2022-12-26T16:47:02;0.10;;;0.00;;
39400;SDS011;54391;50.000;7.360;2022-12-26T16:49:34;0.10;;;0.10;;
39400;SDS011;54391;50.000;7.360;2022-12-26T16:52:04;0.40;;;0.20;;
39400;SDS011;54391;50.000;7.360;2022-12-26T16:54:34;1.15;;;0.20;;